sensor_id;sensor_type;location;lat;lon;timestamp;pressure;altitude;pressure_sealevel;temperature;humidity
45357;BME280;31092;51.924;21.448;2023-04-24T00:02:12;99460.06;;;7.66;100.00
45357;BME280;31092;51.924;21.448;2023-04-24T00:04:38;99464.75;;;7.56;100.00
45357;BME280;31092;51.924;21.448;2023-04-24T00:07:06;99468.25;;;7.48;100.00
45357;BME280;31092;51.924;21.448;2023-04-24T00:09:32;99459.34;;;7.39;100.00
45357;BME280;31092;51.924;21.448;2023-04-24T00:11:58;99454.81;;;7.32;100.00
45357;BME280;31092;51.924;21.448;2023-04-24T00:14:23;99458.16;;;7.26;100.00
45357;BME280;31092;51.924;21.448;2023-04-24T00:16:48;99459.47;;;7.22;100.00
45357;BME280;31092;51.924;21.448;2023-04-24T00:19:14;99455.13;;;7.12;100.00
45357;BME280;31092;51.924;21.448;2023-04-24T00:21:39;99459.28;;;7.07;100.00
45357;BME280;31092;51.924;21.448;2023-04-24T00:24:06;99455.38;;;6.93;100.00
45357;BME280;31092;51.924;21.448;2023-04-24T00:26:31;99455.00;;;6.80;100.00
45357;BME280;31092;51.924;21.448;2023-04-24T00:28:56;99446.38;;;6.60;100.00
45357;BME280;31092;51.924;21.448;2023-04-24T00:31:22;99458.19;;;6.49;100.00
45357;BME280;31092;51.924;21.448;2023-04-24T00:33:47;99447.13;;;6.44;100.00
45357;BME280;31092;51.924;21.448;2023-04-24T00:36:12;99449.28;;;6.40;100.00
45357;BME280;31092;51.924;21.448;2023-04-24T00:38:37;99442.03;;;6.33;100.00
45357;BME280;31092;51.924;21.448;2023-04-24T00:41:03;99447.03;;;6.28;100.00
45357;BME280;31092;51.924;21.448;2023-04-24T00:43:28;99440.47;;;6.22;100.00
45357;BME280;31092;51.924;21.448;2023-04-24T00:45:53;99436.06;;;6.13;100.00
45357;BME280;31092;51.924;21.448;2023-04-24T00:48:20;99431.66;;;6.04;100.00
45357;BME280;31092;51.924;21.448;2023-04-24T00:50:45;99434.09;;;5.97;100.00
45357;BME280;31092;51.924;21.448;2023-04-24T00:53:10;99427.41;;;5.93;100.00
45357;BME280;31092;51.924;21.448;2023-04-24T00:55:36;99433.31;;;5.87;100.00
45357;BME280;31092;51.924;21.448;2023-04-24T00:58:02;99429.59;;;5.80;100.00
45357;BME280;31092;51.924;21.448;2023-04-24T01:00:27;99435.63;;;5.82;100.00
45357;BME280;31092;51.924;21.448;2023-04-24T01:02:53;99429.94;;;5.76;100.00
45357;BME280;31092;51.924;21.448;2023-04-24T01:05:18;99432.22;;;5.71;100.00
45357;BME280;31092;51.924;21.448;2023-04-24T01:07:44;99433.53;;;5.67;100.00
45357;BME280;31092;51.924;21.448;2023-04-24T01:10:11;99437.19;;;5.66;100.00
45357;BME280;31092;51.924;21.448;2023-04-24T01:12:37;99437.19;;;5.66;100.00
45357;BME280;31092;51.924;21.448;2023-04-24T01:15:02;99435.34;;;5.67;100.00
45357;BME280;31092;51.924;21.448;2023-04-24T01:17:28;99431.31;;;5.63;100.00
45357;BME280;31092;51.924;21.448;2023-04-24T01:19:54;99428.19;;;5.49;100.00
45357;BME280;31092;51.924;21.448;2023-04-24T01:22:22;99427.88;;;5.35;100.00
45357;BME280;31092;51.924;21.448;2023-04-24T01:24:47;99429.25;;;5.21;100.00
45357;BME280;31092;51.924;21.448;2023-04-24T01:27:12;99423.50;;;5.16;100.00
45357;BME280;31092;51.924;21.448;2023-04-24T01:29:38;99419.16;;;5.15;100.00
45357;BME280;31092;51.924;21.448;2023-04-24T01:32:03;99429.38;;;5.19;100.00
45357;BME280;31092;51.924;21.448;2023-04-24T01:34:29;99421.63;;;5.26;100.00
45357;BME280;31092;51.924;21.448;2023-04-24T01:36:54;99418.63;;;5.29;100.00
45357;BME280;31092;51.924;21.448;2023-04-24T01:39:21;99410.63;;;5.29;100.00
45357;BME280;31092;51.924;21.448;2023-04-24T01:41:48;99415.31;;;5.27;100.00
45357;BME280;31092;51.924;21.448;2023-04-24T01:44:14;99415.59;;;5.24;100.00
45357;BME280;31092;51.924;21.448;2023-04-24T01:46:40;99415.38;;;5.17;100.00
45357;BME280;31092;51.924;21.448;2023-04-24T01:49:06;99411.75;;;5.09;100.00
45357;BME280;31092;51.924;21.448;2023-04-24T01:51:31;99408.00;;;5.01;100.00
45357;BME280;31092;51.924;21.448;2023-04-24T01:53:57;99414.50;;;4.99;100.00
45357;BME280;31092;51.924;21.448;2023-04-24T01:56:22;99410.84;;;5.00;100.00
45357;BME280;31092;51.924;21.448;2023-04-24T01:58:48;99407.88;;;5.03;100.00
45357;BME280;31092;51.924;21.448;2023-04-24T02:01:17;99407.72;;;5.04;100.00
45357;BME280;31092;51.924;21.448;2023-04-24T02:03:43;99415.59;;;5.06;100.00
45357;BME280;31092;51.924;21.448;2023-04-24T02:06:08;99401.41;;;5.06;100.00
45357;BME280;31092;51.924;21.448;2023-04-24T02:08:34;99403.38;;;5.03;100.00
45357;BME280;31092;51.924;21.448;2023-04-24T02:11:09;99401.41;;;5.06;100.00
45357;BME280;31092;51.924;21.448;2023-04-24T02:13:43;99397.97;;;5.13;100.00
45357;BME280;31092;51.924;21.448;2023-04-24T02:16:09;99402.69;;;5.19;100.00
45357;BME280;31092;51.924;21.448;2023-04-24T02:18:34;99403.25;;;5.23;100.00
45357;BME280;31092;51.924;21.448;2023-04-24T02:20:59;99391.72;;;5.22;100.00
45357;BME280;31092;51.924;21.448;2023-04-24T02:23:25;99392.47;;;5.33;100.00
45357;BME280;31092;51.924;21.448;2023-04-24T02:25:52;99382.03;;;5.39;100.00
45357;BME280;31092;51.924;21.448;2023-04-24T02:28:18;99386.91;;;5.44;100.00
45357;BME280;31092;51.924;21.448;2023-04-24T02:30:43;99379.28;;;5.49;100.00
45357;BME280;31092;51.924;21.448;2023-04-24T02:33:08;99372.69;;;5.61;100.00
45357;BME280;31092;51.924;21.448;2023-04-24T02:35:34;99373.91;;;5.67;100.00
45357;BME280;31092;51.924;21.448;2023-04-24T02:37:59;99376.28;;;5.70;100.00
45357;BME280;31092;51.924;21.448;2023-04-24T02:40:25;99368.94;;;5.72;100.00
45357;BME280;31092;51.924;21.448;2023-04-24T02:42:50;99369.09;;;5.70;100.00
45357;BME280;31092;51.924;21.448;2023-04-24T02:45:15;99364.59;;;5.71;100.00
45357;BME280;31092;51.924;21.448;2023-04-24T02:47:41;99361.06;;;5.70;100.00
45357;BME280;31092;51.924;21.448;2023-04-24T02:50:06;99370.09;;;5.69;100.00
45357;BME280;31092;51.924;21.448;2023-04-24T02:52:32;99370.94;;;5.70;100.00
45357;BME280;31092;51.924;21.448;2023-04-24T02:54:57;99365.28;;;5.73;100.00
45357;BME280;31092;51.924;21.448;2023-04-24T02:57:22;99366.78;;;5.75;100.00
45357;BME280;31092;51.924;21.448;2023-04-24T02:59:48;99361.81;;;5.81;100.00
45357;BME280;31092;51.924;21.448;2023-04-24T03:02:13;99367.38;;;5.87;100.00
45357;BME280;31092;51.924;21.448;2023-04-24T03:04:38;99368.88;;;5.90;100.00
45357;BME280;31092;51.924;21.448;2023-04-24T03:07:05;99367.03;;;5.90;100.00
45357;BME280;31092;51.924;21.448;2023-04-24T03:09:30;99360.72;;;5.91;100.00
45357;BME280;31092;51.924;21.448;2023-04-24T03:11:56;99367.59;;;5.94;100.00
45357;BME280;31092;51.924;21.448;2023-04-24T03:14:22;99364.38;;;5.90;100.00
45357;BME280;31092;51.924;21.448;2023-04-24T03:16:47;99367.69;;;5.84;100.00
45357;BME280;31092;51.924;21.448;2023-04-24T03:19:12;99363.66;;;5.80;100.00
45357;BME280;31092;51.924;21.448;2023-04-24T03:21:38;99368.47;;;5.76;100.00
45357;BME280;31092;51.924;21.448;2023-04-24T03:24:06;99367.09;;;5.72;100.00
45357;BME280;31092;51.924;21.448;2023-04-24T03:26:31;99370.09;;;5.69;100.00
45357;BME280;31092;51.924;21.448;2023-04-24T03:28:57;99368.72;;;5.65;100.00
45357;BME280;31092;51.924;21.448;2023-04-24T03:31:22;99371.53;;;5.64;100.00
45357;BME280;31092;51.924;21.448;2023-04-24T03:33:48;99380.25;;;5.66;100.00
45357;BME280;31092;51.924;21.448;2023-04-24T03:36:13;99368.41;;;5.68;100.00
45357;BME280;31092;51.924;21.448;2023-04-24T03:38:39;99375.28;;;5.71;100.00
45357;BME280;31092;51.924;21.448;2023-04-24T03:41:04;99383.13;;;5.72;100.00
45357;BME280;31092;51.924;21.448;2023-04-24T03:43:29;99377.31;;;5.77;100.00
45357;BME280;31092;51.924;21.448;2023-04-24T03:45:55;99379.53;;;5.82;100.00
45357;BME280;31092;51.924;21.448;2023-04-24T03:48:20;99376.53;;;5.85;100.00
45357;BME280;31092;51.924;21.448;2023-04-24T03:50:46;99372.56;;;5.89;100.00
45357;BME280;31092;51.924;21.448;2023-04-24T03:53:11;99377.66;;;6.00;100.00
45357;BME280;31092;51.924;21.448;2023-04-24T03:55:36;99379.53;;;6.08;100.00
45357;BME280;31092;51.924;21.448;2023-04-24T03:58:02;99377.09;;;6.14;100.00
45357;BME280;31092;51.924;21.448;2023-04-24T04:00:27;99371.09;;;6.20;100.00
45357;BME280;31092;51.924;21.448;2023-04-24T04:02:53;99375.34;;;6.31;100.00
45357;BME280;31092;51.924;21.448;2023-04-24T04:05:18;99381.25;;;6.43;100.00
45357;BME280;31092;51.924;21.448;2023-04-24T04:07:43;99391.81;;;6.53;100.00
45357;BME280;31092;51.924;21.448;2023-04-24T04:10:09;99393.69;;;6.60;100.00
45357;BME280;31092;51.924;21.448;2023-04-24T04:12:34;99386.69;;;6.67;100.00
45357;BME280;31092;51.924;21.448;2023-04-24T04:15:00;99390.41;;;6.75;100.00
45357;BME280;31092;51.924;21.448;2023-04-24T04:17:25;99387.59;;;6.84;100.00
45357;BME280;31092;51.924;21.448;2023-04-24T04:19:50;99384.78;;;6.94;100.00
45357;BME280;31092;51.924;21.448;2023-04-24T04:22:15;99387.97;;;6.98;100.00
45357;BME280;31092;51.924;21.448;2023-04-24T04:24:41;99385.97;;;7.00;100.00
45357;BME280;31092;51.924;21.448;2023-04-24T04:27:06;99395.84;;;7.07;100.00
45357;BME280;31092;51.924;21.448;2023-04-24T04:29:33;99391.19;;;7.17;100.00
45357;BME280;31092;51.924;21.448;2023-04-24T04:31:59;99391.38;;;7.24;100.00
45357;BME280;31092;51.924;21.448;2023-04-24T04:34:25;99395.75;;;7.33;100.00
45357;BME280;31092;51.924;21.448;2023-04-24T04:36:50;99383.34;;;7.40;100.00
45357;BME280;31092;51.924;21.448;2023-04-24T04:39:15;99379.84;;;7.48;100.00
45357;BME280;31092;51.924;21.448;2023-04-24T04:41:41;99378.81;;;7.57;100.00
45357;BME280;31092;51.924;21.448;2023-04-24T04:44:07;99386.38;;;7.70;100.00
45357;BME280;31092;51.924;21.448;2023-04-24T04:46:34;99384.69;;;7.77;100.00
45357;BME280;31092;51.924;21.448;2023-04-24T04:49:02;99383.34;;;7.81;100.00
45357;BME280;31092;51.924;21.448;2023-04-24T04:51:27;99386.69;;;7.91;100.00
45357;BME280;31092;51.924;21.448;2023-04-24T04:53:53;99388.50;;;7.99;100.00
45357;BME280;31092;51.924;21.448;2023-04-24T04:56:18;99372.75;;;8.12;100.00
45357;BME280;31092;51.924;21.448;2023-04-24T04:58:44;99384.44;;;8.28;100.00
45357;BME280;31092;51.924;21.448;2023-04-24T05:01:09;99379.22;;;8.43;100.00
45357;BME280;31092;51.924;21.448;2023-04-24T05:03:35;99370.28;;;8.58;100.00
45357;BME280;31092;51.924;21.448;2023-04-24T05:06:01;99374.91;;;8.73;100.00
45357;BME280;31092;51.924;21.448;2023-04-24T05:08:26;99360.56;;;8.88;100.00
45357;BME280;31092;51.924;21.448;2023-04-24T05:10:51;99363.63;;;9.08;100.00
45357;BME280;31092;51.924;21.448;2023-04-24T05:13:17;99366.03;;;9.26;100.00
45357;BME280;31092;51.924;21.448;2023-04-24T05:15:42;99354.50;;;9.41;100.00
45357;BME280;31092;51.924;21.448;2023-04-24T05:18:07;99357.53;;;9.61;100.00
45357;BME280;31092;51.924;21.448;2023-04-24T05:20:32;99356.34;;;9.78;100.00
45357;BME280;31092;51.924;21.448;2023-04-24T05:22:58;99360.41;;;9.97;100.00
45357;BME280;31092;51.924;21.448;2023-04-24T05:25:23;99353.44;;;10.17;100.00
45357;BME280;31092;51.924;21.448;2023-04-24T05:27:48;99349.03;;;10.39;100.00
45357;BME280;31092;51.924;21.448;2023-04-24T05:30:14;99350.97;;;10.60;100.00
45357;BME280;31092;51.924;21.448;2023-04-24T05:32:39;99341.25;;;10.81;100.00
45357;BME280;31092;51.924;21.448;2023-04-24T05:35:05;99351.56;;;11.13;100.00
45357;BME280;31092;51.924;21.448;2023-04-24T05:37:30;99343.94;;;11.81;100.00
45357;BME280;31092;51.924;21.448;2023-04-24T05:39:56;99332.34;;;12.50;100.00
45357;BME280;31092;51.924;21.448;2023-04-24T05:42:21;99329.16;;;12.81;100.00
45357;BME280;31092;51.924;21.448;2023-04-24T05:44:46;99322.31;;;12.92;100.00
45357;BME280;31092;51.924;21.448;2023-04-24T05:47:12;99325.34;;;12.69;100.00
45357;BME280;31092;51.924;21.448;2023-04-24T05:49:37;99332.66;;;12.75;100.00
45357;BME280;31092;51.924;21.448;2023-04-24T05:52:02;99327.06;;;12.83;100.00
45357;BME280;31092;51.924;21.448;2023-04-24T05:54:29;99331.81;;;12.75;100.00
45357;BME280;31092;51.924;21.448;2023-04-24T05:56:54;99321.03;;;12.75;100.00
45357;BME280;31092;51.924;21.448;2023-04-24T05:59:20;99321.91;;;12.88;100.00
45357;BME280;31092;51.924;21.448;2023-04-24T06:01:46;99314.03;;;13.07;100.00
45357;BME280;31092;51.924;21.448;2023-04-24T06:04:12;99316.00;;;13.39;100.00
45357;BME280;31092;51.924;21.448;2023-04-24T06:06:38;99313.06;;;13.48;100.00
45357;BME280;31092;51.924;21.448;2023-04-24T06:09:03;99305.59;;;13.50;100.00
45357;BME280;31092;51.924;21.448;2023-04-24T06:11:29;99313.91;;;13.55;100.00
45357;BME280;31092;51.924;21.448;2023-04-24T06:13:55;99317.44;;;13.55;100.00
45357;BME280;31092;51.924;21.448;2023-04-24T06:16:21;99298.72;;;13.60;100.00
45357;BME280;31092;51.924;21.448;2023-04-24T06:18:46;99308.09;;;13.71;100.00
45357;BME280;31092;51.924;21.448;2023-04-24T06:21:12;99307.47;;;13.82;100.00
45357;BME280;31092;51.924;21.448;2023-04-24T06:23:37;99310.56;;;13.93;100.00
45357;BME280;31092;51.924;21.448;2023-04-24T06:26:03;99304.75;;;14.02;100.00
45357;BME280;31092;51.924;21.448;2023-04-24T06:28:28;99300.16;;;14.09;100.00
45357;BME280;31092;51.924;21.448;2023-04-24T06:30:53;99297.38;;;14.23;100.00
45357;BME280;31092;51.924;21.448;2023-04-24T06:33:18;99289.19;;;14.43;100.00
45357;BME280;31092;51.924;21.448;2023-04-24T06:35:44;99282.47;;;14.65;100.00
45357;BME280;31092;51.924;21.448;2023-04-24T06:38:09;99281.56;;;14.78;100.00
45357;BME280;31092;51.924;21.448;2023-04-24T06:40:35;99288.03;;;14.83;100.00
45357;BME280;31092;51.924;21.448;2023-04-24T06:43:00;99292.13;;;14.93;100.00
45357;BME280;31092;51.924;21.448;2023-04-24T06:45:27;99285.63;;;15.00;100.00
45357;BME280;31092;51.924;21.448;2023-04-24T06:47:53;99292.88;;;15.06;100.00
45357;BME280;31092;51.924;21.448;2023-04-24T06:50:18;99293.28;;;15.10;100.00
45357;BME280;31092;51.924;21.448;2023-04-24T06:52:43;99288.66;;;15.17;100.00
45357;BME280;31092;51.924;21.448;2023-04-24T06:55:09;99280.91;;;15.21;100.00
45357;BME280;31092;51.924;21.448;2023-04-24T06:57:36;99282.06;;;15.31;100.00
45357;BME280;31092;51.924;21.448;2023-04-24T07:00:01;99282.38;;;15.48;100.00
45357;BME280;31092;51.924;21.448;2023-04-24T07:02:28;99277.41;;;15.70;100.00
45357;BME280;31092;51.924;21.448;2023-04-24T07:04:53;99280.66;;;15.79;100.00
45357;BME280;31092;51.924;21.448;2023-04-24T07:07:19;99271.09;;;15.76;100.00
45357;BME280;31092;51.924;21.448;2023-04-24T07:09:44;99270.34;;;15.69;100.00
45357;BME280;31092;51.924;21.448;2023-04-24T07:12:10;99276.19;;;15.66;100.00
45357;BME280;31092;51.924;21.448;2023-04-24T07:14:36;99271.34;;;15.68;100.00
45357;BME280;31092;51.924;21.448;2023-04-24T07:17:04;99262.78;;;15.71;100.00
45357;BME280;31092;51.924;21.448;2023-04-24T07:19:31;99261.38;;;15.87;100.00
45357;BME280;31092;51.924;21.448;2023-04-24T07:21:58;99262.59;;;16.10;100.00
45357;BME280;31092;51.924;21.448;2023-04-24T07:24:24;99251.78;;;16.40;100.00
45357;BME280;31092;51.924;21.448;2023-04-24T07:26:50;99250.88;;;16.64;100.00
45357;BME280;31092;51.924;21.448;2023-04-24T07:29:16;99256.56;;;16.93;100.00
45357;BME280;31092;51.924;21.448;2023-04-24T07:31:41;99257.47;;;17.17;100.00
45357;BME280;31092;51.924;21.448;2023-04-24T07:34:07;99260.09;;;17.35;100.00
45357;BME280;31092;51.924;21.448;2023-04-24T07:36:32;99251.13;;;17.46;100.00
45357;BME280;31092;51.924;21.448;2023-04-24T07:38:58;99256.00;;;17.56;100.00
45357;BME280;31092;51.924;21.448;2023-04-24T07:41:23;99254.25;;;17.74;100.00
45357;BME280;31092;51.924;21.448;2023-04-24T07:43:49;99252.38;;;17.98;100.00
45357;BME280;31092;51.924;21.448;2023-04-24T07:46:14;99246.06;;;18.21;100.00
45357;BME280;31092;51.924;21.448;2023-04-24T07:48:40;99248.13;;;18.42;100.00
45357;BME280;31092;51.924;21.448;2023-04-24T07:51:05;99244.06;;;18.56;100.00
45357;BME280;31092;51.924;21.448;2023-04-24T07:53:31;99243.34;;;18.73;100.00
45357;BME280;31092;51.924;21.448;2023-04-24T07:55:56;99248.50;;;18.86;100.00
45357;BME280;31092;51.924;21.448;2023-04-24T07:58:21;99245.97;;;18.96;100.00
45357;BME280;31092;51.924;21.448;2023-04-24T08:00:47;99237.38;;;19.04;100.00
45357;BME280;31092;51.924;21.448;2023-04-24T08:03:12;99241.78;;;19.22;100.00
45357;BME280;31092;51.924;21.448;2023-04-24T08:05:38;99233.19;;;19.47;100.00
45357;BME280;31092;51.924;21.448;2023-04-24T08:08:03;99233.63;;;19.73;100.00
45357;BME280;31092;51.924;21.448;2023-04-24T08:10:29;99239.16;;;19.78;100.00
45357;BME280;31092;51.924;21.448;2023-04-24T08:12:54;99234.69;;;19.89;100.00
45357;BME280;31092;51.924;21.448;2023-04-24T08:15:20;99234.56;;;20.00;100.00
45357;BME280;31092;51.924;21.448;2023-04-24T08:17:45;99232.41;;;20.02;100.00
45357;BME280;31092;51.924;21.448;2023-04-24T08:20:11;99233.75;;;20.22;100.00
45357;BME280;31092;51.924;21.448;2023-04-24T08:22:41;99236.00;;;20.25;100.00
45357;BME280;31092;51.924;21.448;2023-04-24T08:25:07;99237.91;;;20.46;100.00
45357;BME280;31092;51.924;21.448;2023-04-24T08:27:32;99232.78;;;20.77;100.00
45357;BME280;31092;51.924;21.448;2023-04-24T08:29:58;99230.78;;;20.94;100.00
45357;BME280;31092;51.924;21.448;2023-04-24T08:32:26;99225.13;;;21.01;100.00
45357;BME280;31092;51.924;21.448;2023-04-24T08:34:57;99225.31;;;21.21;100.00
45357;BME280;31092;51.924;21.448;2023-04-24T08:37:23;99218.38;;;21.41;100.00
45357;BME280;31092;51.924;21.448;2023-04-24T08:39:49;99221.81;;;21.58;100.00
45357;BME280;31092;51.924;21.448;2023-04-24T08:42:14;99227.84;;;21.60;100.00
45357;BME280;31092;51.924;21.448;2023-04-24T08:44:40;99222.59;;;21.54;100.00
45357;BME280;31092;51.924;21.448;2023-04-24T08:47:05;99229.59;;;21.39;100.00
45357;BME280;31092;51.924;21.448;2023-04-24T08:49:32;99224.16;;;21.44;100.00
45357;BME280;31092;51.924;21.448;2023-04-24T08:51:58;99228.47;;;21.67;100.00
45357;BME280;31092;51.924;21.448;2023-04-24T08:54:24;99223.06;;;21.78;100.00
45357;BME280;31092;51.924;21.448;2023-04-24T08:56:50;99220.03;;;21.84;100.00
45357;BME280;31092;51.924;21.448;2023-04-24T08:59:18;99221.97;;;21.84;100.00
45357;BME280;31092;51.924;21.448;2023-04-24T09:01:44;99220.03;;;21.79;100.00
45357;BME280;31092;51.924;21.448;2023-04-24T09:04:10;99224.94;;;21.77;100.00
45357;BME280;31092;51.924;21.448;2023-04-24T09:06:37;99223.78;;;21.68;100.00
45357;BME280;31092;51.924;21.448;2023-04-24T09:09:02;99218.09;;;21.80;100.00
45357;BME280;31092;51.924;21.448;2023-04-24T09:11:29;99224.59;;;22.06;100.00
45357;BME280;31092;51.924;21.448;2023-04-24T09:13:55;99212.94;;;22.31;100.00
45357;BME280;31092;51.924;21.448;2023-04-24T09:16:21;99217.72;;;22.56;100.00
45357;BME280;31092;51.924;21.448;2023-04-24T09:18:49;99212.50;;;22.69;98.32
45357;BME280;31092;51.924;21.448;2023-04-24T09:21:14;99209.53;;;22.81;97.44
45357;BME280;31092;51.924;21.448;2023-04-24T09:23:39;99209.03;;;23.05;96.72
45357;BME280;31092;51.924;21.448;2023-04-24T09:26:05;99198.59;;;23.48;97.78
45357;BME280;31092;51.924;21.448;2023-04-24T09:28:32;99205.22;;;23.77;97.06
45357;BME280;31092;51.924;21.448;2023-04-24T09:31:11;99197.44;;;24.05;95.67
45357;BME280;31092;51.924;21.448;2023-04-24T09:33:38;99198.53;;;24.04;94.53
45357;BME280;31092;51.924;21.448;2023-04-24T09:36:03;99197.44;;;24.00;92.87
45357;BME280;31092;51.924;21.448;2023-04-24T09:38:32;99193.34;;;23.87;93.40
45357;BME280;31092;51.924;21.448;2023-04-24T09:41:02;99195.88;;;23.73;93.67
45357;BME280;31092;51.924;21.448;2023-04-24T09:43:28;99192.84;;;23.49;94.15
45357;BME280;31092;51.924;21.448;2023-04-24T09:45:55;99188.72;;;23.36;94.92
45357;BME280;31092;51.924;21.448;2023-04-24T09:48:29;99187.63;;;23.53;95.61
45357;BME280;31092;51.924;21.448;2023-04-24T09:50:54;99190.63;;;23.66;95.79
45357;BME280;31092;51.924;21.448;2023-04-24T09:53:23;99187.38;;;23.70;94.35
45357;BME280;31092;51.924;21.448;2023-04-24T09:55:49;99193.91;;;23.58;93.99
45357;BME280;31092;51.924;21.448;2023-04-24T09:58:15;99185.94;;;23.62;94.18
45357;BME280;31092;51.924;21.448;2023-04-24T10:00:40;99181.59;;;23.35;91.33
45357;BME280;31092;51.924;21.448;2023-04-24T10:03:06;99184.34;;;23.25;92.27
45357;BME280;31092;51.924;21.448;2023-04-24T10:05:32;99178.59;;;23.27;91.29
45357;BME280;31092;51.924;21.448;2023-04-24T10:08:01;99180.78;;;23.25;92.58
45357;BME280;31092;51.924;21.448;2023-04-24T10:10:28;99175.84;;;23.27;90.93
45357;BME280;31092;51.924;21.448;2023-04-24T10:12:54;99174.44;;;23.29;92.34
45357;BME280;31092;51.924;21.448;2023-04-24T10:15:29;99177.72;;;23.36;91.49
45357;BME280;31092;51.924;21.448;2023-04-24T10:17:58;99171.72;;;23.24;91.46
45357;BME280;31092;51.924;21.448;2023-04-24T10:20:27;99178.59;;;23.27;92.08
45357;BME280;31092;51.924;21.448;2023-04-24T10:22:54;99169.25;;;23.28;92.08
45357;BME280;31092;51.924;21.448;2023-04-24T10:25:20;99173.06;;;23.42;91.83
45357;BME280;31092;51.924;21.448;2023-04-24T10:27:47;99168.38;;;23.48;90.46
45357;BME280;31092;51.924;21.448;2023-04-24T10:30:13;99167.00;;;23.60;91.28
45357;BME280;31092;51.924;21.448;2023-04-24T10:32:38;99162.56;;;23.85;91.63
45357;BME280;31092;51.924;21.448;2023-04-24T10:35:03;99154.31;;;23.80;87.68
45357;BME280;31092;51.924;21.448;2023-04-24T10:37:29;99152.72;;;23.53;88.55
45357;BME280;31092;51.924;21.448;2023-04-24T10:40:00;99162.59;;;23.59;89.98
45357;BME280;31092;51.924;21.448;2023-04-24T10:42:26;99151.91;;;23.73;89.65
45357;BME280;31092;51.924;21.448;2023-04-24T10:44:52;99149.06;;;23.94;90.85
45357;BME280;31092;51.924;21.448;2023-04-24T10:47:18;99154.75;;;24.23;91.43
45357;BME280;31092;51.924;21.448;2023-04-24T10:49:44;99150.28;;;24.37;89.47
45357;BME280;31092;51.924;21.448;2023-04-24T10:52:09;99144.56;;;24.23;88.07
45357;BME280;31092;51.924;21.448;2023-04-24T10:54:41;99143.16;;;24.31;89.30
45357;BME280;31092;51.924;21.448;2023-04-24T10:59:44;99138.53;;;24.16;87.40
45357;BME280;31092;51.924;21.448;2023-04-24T11:02:10;99133.38;;;23.99;86.49
45357;BME280;31092;51.924;21.448;2023-04-24T11:04:35;99135.06;;;23.80;86.34
45357;BME280;31092;51.924;21.448;2023-04-24T11:07:02;99135.41;;;23.68;86.46
45357;BME280;31092;51.924;21.448;2023-04-24T11:09:28;99132.91;;;23.72;87.71
45357;BME280;31092;51.924;21.448;2023-04-24T11:12:04;99136.97;;;23.89;87.85
45357;BME280;31092;51.924;21.448;2023-04-24T11:14:58;99137.72;;;24.10;86.93
45357;BME280;31092;51.924;21.448;2023-04-24T11:20:00;99123.31;;;24.34;86.28
45357;BME280;31092;51.924;21.448;2023-04-24T11:22:25;99120.53;;;24.39;85.77
45357;BME280;31092;51.924;21.448;2023-04-24T11:24:53;99115.97;;;24.14;85.19
45357;BME280;31092;51.924;21.448;2023-04-24T11:27:19;99114.09;;;24.04;85.97
45357;BME280;31092;51.924;21.448;2023-04-24T11:34:57;99111.03;;;24.11;87.21
45357;BME280;31092;51.924;21.448;2023-04-24T11:37:33;99116.41;;;23.77;87.07
45357;BME280;31092;51.924;21.448;2023-04-24T11:39:59;99107.69;;;22.98;86.18
45357;BME280;31092;51.924;21.448;2023-04-24T11:42:24;99108.22;;;22.59;88.04
45357;BME280;31092;51.924;21.448;2023-04-24T11:44:53;99114.22;;;22.46;89.56
45357;BME280;31092;51.924;21.448;2023-04-24T11:47:26;99113.34;;;22.20;91.39
45357;BME280;31092;51.924;21.448;2023-04-24T11:49:52;99112.59;;;21.82;91.38
45357;BME280;31092;51.924;21.448;2023-04-24T11:52:17;99105.63;;;21.54;92.52
45357;BME280;31092;51.924;21.448;2023-04-24T11:54:49;99108.94;;;21.61;93.54
45357;BME280;31092;51.924;21.448;2023-04-24T11:57:15;99103.09;;;21.42;94.02
45357;BME280;31092;51.924;21.448;2023-04-24T11:59:41;99097.66;;;21.15;93.83
45357;BME280;31092;51.924;21.448;2023-04-24T12:02:06;99102.16;;;20.94;94.82
45357;BME280;31092;51.924;21.448;2023-04-24T12:04:38;99097.38;;;20.79;95.98
45357;BME280;31092;51.924;21.448;2023-04-24T12:07:04;99095.38;;;20.70;96.90
45357;BME280;31092;51.924;21.448;2023-04-24T12:09:43;99093.13;;;20.62;96.06
45357;BME280;31092;51.924;21.448;2023-04-24T12:12:09;99094.66;;;20.52;95.62
45357;BME280;31092;51.924;21.448;2023-04-24T12:14:48;99094.31;;;20.49;95.14
45357;BME280;31092;51.924;21.448;2023-04-24T12:17:15;99090.22;;;20.46;95.59
45357;BME280;31092;51.924;21.448;2023-04-24T12:19:44;99085.00;;;20.45;94.34
45357;BME280;31092;51.924;21.448;2023-04-24T12:22:10;99088.81;;;20.44;93.25
45357;BME280;31092;51.924;21.448;2023-04-24T12:24:54;99088.00;;;20.43;92.18
45357;BME280;31092;51.924;21.448;2023-04-24T12:27:20;99088.84;;;20.49;90.84
45357;BME280;31092;51.924;21.448;2023-04-24T12:29:52;99080.69;;;20.81;90.24
45357;BME280;31092;51.924;21.448;2023-04-24T12:32:18;99059.31;;;21.52;89.91
45357;BME280;31092;51.924;21.448;2023-04-24T12:34:43;99077.69;;;22.25;86.97
45357;BME280;31092;51.924;21.448;2023-04-24T12:37:10;99068.44;;;22.77;84.32
45357;BME280;31092;51.924;21.448;2023-04-24T12:39:35;99077.22;;;22.84;83.79
45357;BME280;31092;51.924;21.448;2023-04-24T12:42:01;99073.94;;;23.23;82.78
45357;BME280;31092;51.924;21.448;2023-04-24T12:44:30;99069.16;;;23.54;81.23
45357;BME280;31092;51.924;21.448;2023-04-24T12:46:56;99071.06;;;23.69;78.95
45357;BME280;31092;51.924;21.448;2023-04-24T12:49:21;99066.19;;;23.46;78.88
45357;BME280;31092;51.924;21.448;2023-04-24T12:51:46;99070.31;;;23.33;78.83
45357;BME280;31092;51.924;21.448;2023-04-24T12:54:12;99065.97;;;23.16;78.01